sensor_id;sensor_type;location;lat;lon;timestamp;pressure;altitude;pressure_sealevel;temperature;humidity
24666;BME280;29726;53.532;-1.478;2023-03-12T00:00:19;99275.81;;;8.69;91.73
24666;BME280;29726;53.532;-1.478;2023-03-12T00:03:03;99274.00;;;8.66;91.57
24666;BME280;29726;53.532;-1.478;2023-03-12T00:05:47;99256.94;;;8.58;91.74
24666;BME280;29726;53.532;-1.478;2023-03-12T00:08:31;99260.09;;;8.66;91.80
24666;BME280;29726;53.532;-1.478;2023-03-12T00:11:18;99253.41;;;8.58;92.07
24666;BME280;29726;53.532;-1.478;2023-03-12T00:14:02;99256.75;;;8.62;91.65
24666;BME280;29726;53.532;-1.478;2023-03-12T00:16:46;99253.00;;;8.65;91.96
24666;BME280;29726;53.532;-1.478;2023-03-12T00:19:30;99249.66;;;8.61;92.20
24666;BME280;29726;53.532;-1.478;2023-03-12T00:22:14;99251.69;;;8.60;92.04
24666;BME280;29726;53.532;-1.478;2023-03-12T00:25:00;99245.06;;;8.58;92.16
24666;BME280;29726;53.532;-1.478;2023-03-12T00:27:43;99249.38;;;8.59;91.94
24666;BME280;29726;53.532;-1.478;2023-03-12T00:30:27;99247.84;;;8.58;92.30
24666;BME280;29726;53.532;-1.478;2023-03-12T00:33:12;99248.06;;;8.54;91.87
24666;BME280;29726;53.532;-1.478;2023-03-12T00:35:59;99252.38;;;8.55;92.00
24666;BME280;29726;53.532;-1.478;2023-03-12T00:38:43;99197.72;;;8.18;92.38
24666;BME280;29726;53.532;-1.478;2023-03-12T00:41:27;99245.00;;;8.52;92.42
24666;BME280;29726;53.532;-1.478;2023-03-12T00:44:13;99212.84;;;8.31;92.37
24666;BME280;29726;53.532;-1.478;2023-03-12T00:46:57;99231.03;;;8.47;92.38
24666;BME280;29726;53.532;-1.478;2023-03-12T00:49:40;99235.03;;;8.46;92.55
24666;BME280;29726;53.532;-1.478;2023-03-12T00:52:24;99207.00;;;8.29;92.68
24666;BME280;29726;53.532;-1.478;2023-03-12T00:55:08;99175.88;;;8.11;92.66
24666;BME280;29726;53.532;-1.478;2023-03-12T00:57:52;99214.44;;;8.38;92.10
24666;BME280;29726;53.532;-1.478;2023-03-12T01:00:36;99196.78;;;8.41;92.42
24666;BME280;29726;53.532;-1.478;2023-03-12T01:03:20;99191.19;;;8.35;92.79
24666;BME280;29726;53.532;-1.478;2023-03-12T01:06:05;99190.53;;;8.46;92.48
24666;BME280;29726;53.532;-1.478;2023-03-12T01:08:49;99184.69;;;8.44;92.36
24666;BME280;29726;53.532;-1.478;2023-03-12T01:11:35;99169.41;;;8.34;92.45
24666;BME280;29726;53.532;-1.478;2023-03-12T01:14:19;99165.66;;;8.37;93.00
24666;BME280;29726;53.532;-1.478;2023-03-12T01:17:03;99171.50;;;8.39;92.68
24666;BME280;29726;53.532;-1.478;2023-03-12T01:19:47;99172.56;;;8.41;93.00
24666;BME280;29726;53.532;-1.478;2023-03-12T01:22:31;99177.34;;;8.41;93.02
24666;BME280;29726;53.532;-1.478;2023-03-12T01:25:15;99171.22;;;8.37;92.65
24666;BME280;29726;53.532;-1.478;2023-03-12T01:27:59;99173.03;;;8.40;92.58
24666;BME280;29726;53.532;-1.478;2023-03-12T01:30:43;99159.53;;;8.33;92.73
24666;BME280;29726;53.532;-1.478;2023-03-12T01:33:27;99158.00;;;8.32;92.57
24666;BME280;29726;53.532;-1.478;2023-03-12T01:36:18;99161.25;;;8.30;92.20
24666;BME280;29726;53.532;-1.478;2023-03-12T01:39:02;99168.44;;;8.37;92.36
24666;BME280;29726;53.532;-1.478;2023-03-12T01:41:47;99158.22;;;8.28;92.76
24666;BME280;29726;53.532;-1.478;2023-03-12T01:44:48;99150.69;;;8.34;92.70
24666;BME280;29726;53.532;-1.478;2023-03-12T01:47:32;99149.31;;;8.24;92.66
24666;BME280;29726;53.532;-1.478;2023-03-12T01:50:15;99148.41;;;8.33;92.88
24666;BME280;29726;53.532;-1.478;2023-03-12T01:52:59;99149.66;;;8.32;92.48
24666;BME280;29726;53.532;-1.478;2023-03-12T01:55:43;99153.47;;;8.34;92.84
24666;BME280;29726;53.532;-1.478;2023-03-12T01:58:29;99143.84;;;8.30;92.60
24666;BME280;29726;53.532;-1.478;2023-03-12T02:01:17;99144.03;;;8.26;92.45
24666;BME280;29726;53.532;-1.478;2023-03-12T02:04:01;99144.38;;;8.34;92.78
24666;BME280;29726;53.532;-1.478;2023-03-12T02:06:57;99127.84;;;8.25;92.34
24666;BME280;29726;53.532;-1.478;2023-03-12T02:09:46;99131.38;;;8.25;93.20
24666;BME280;29726;53.532;-1.478;2023-03-12T02:12:31;99129.66;;;8.28;92.74
24666;BME280;29726;53.532;-1.478;2023-03-12T02:15:15;99137.78;;;8.31;92.83
24666;BME280;29726;53.532;-1.478;2023-03-12T02:18:05;99113.09;;;8.19;93.04
24666;BME280;29726;53.532;-1.478;2023-03-12T02:21:17;99137.78;;;8.31;92.87
24666;BME280;29726;53.532;-1.478;2023-03-12T02:24:14;99142.09;;;8.32;93.19
24666;BME280;29726;53.532;-1.478;2023-03-12T02:27:03;99124.28;;;8.24;93.18
24666;BME280;29726;53.532;-1.478;2023-03-12T02:29:48;99129.66;;;8.28;93.32
24666;BME280;29726;53.532;-1.478;2023-03-12T02:32:35;99125.91;;;8.31;93.22
24666;BME280;29726;53.532;-1.478;2023-03-12T02:35:21;99113.97;;;8.25;93.06
24666;BME280;29726;53.532;-1.478;2023-03-12T02:41:30;99063.03;;;7.99;93.19
24666;BME280;29726;53.532;-1.478;2023-03-12T02:44:22;99105.66;;;8.30;93.13
24666;BME280;29726;53.532;-1.478;2023-03-12T02:47:07;99106.91;;;8.29;93.29
24666;BME280;29726;53.532;-1.478;2023-03-12T02:49:51;99096.59;;;8.30;93.29
24666;BME280;29726;53.532;-1.478;2023-03-12T02:52:35;99091.50;;;8.28;93.50
24666;BME280;29726;53.532;-1.478;2023-03-12T02:55:21;99096.78;;;8.26;93.23
24666;BME280;29726;53.532;-1.478;2023-03-12T02:58:04;99103.38;;;8.29;93.69
24666;BME280;29726;53.532;-1.478;2023-03-12T03:00:48;99092.97;;;8.24;93.30
24666;BME280;29726;53.532;-1.478;2023-03-12T03:03:32;99083.59;;;8.22;93.43
24666;BME280;29726;53.532;-1.478;2023-03-12T03:06:17;99088.28;;;8.16;93.43
24666;BME280;29726;53.532;-1.478;2023-03-12T03:09:01;99097.09;;;8.14;92.99
24666;BME280;29726;53.532;-1.478;2023-03-12T03:11:45;99102.53;;;8.23;93.26
24666;BME280;29726;53.532;-1.478;2023-03-12T03:14:29;99095.38;;;8.17;93.58
24666;BME280;29726;53.532;-1.478;2023-03-12T03:17:13;99109.16;;;8.25;93.58
24666;BME280;29726;53.532;-1.478;2023-03-12T03:19:58;99112.44;;;8.24;93.25
24666;BME280;29726;53.532;-1.478;2023-03-12T03:22:41;99114.44;;;8.23;93.92
24666;BME280;29726;53.532;-1.478;2023-03-12T03:25:26;99106.88;;;8.24;94.12
24666;BME280;29726;53.532;-1.478;2023-03-12T03:28:10;99106.88;;;8.24;93.88
24666;BME280;29726;53.532;-1.478;2023-03-12T03:30:56;99112.72;;;8.26;94.51
24666;BME280;29726;53.532;-1.478;2023-03-12T03:33:41;99121.03;;;8.26;94.53
24666;BME280;29726;53.532;-1.478;2023-03-12T03:36:26;99114.63;;;8.20;94.58
24666;BME280;29726;53.532;-1.478;2023-03-12T03:39:10;99107.16;;;8.26;94.62
24666;BME280;29726;53.532;-1.478;2023-03-12T03:41:54;99101.34;;;8.29;97.51
24666;BME280;29726;53.532;-1.478;2023-03-12T03:44:37;99101.63;;;8.31;97.21
24666;BME280;29726;53.532;-1.478;2023-03-12T03:47:21;99104.41;;;8.31;97.00
24666;BME280;29726;53.532;-1.478;2023-03-12T03:50:05;99104.38;;;8.26;97.03
24666;BME280;29726;53.532;-1.478;2023-03-12T03:52:49;99100.63;;;8.29;97.22
24666;BME280;29726;53.532;-1.478;2023-03-12T03:55:40;99107.78;;;8.35;98.49
24666;BME280;29726;53.532;-1.478;2023-03-12T03:58:24;99097.59;;;8.32;99.50
24666;BME280;29726;53.532;-1.478;2023-03-12T04:01:08;99101.72;;;8.37;100.00
24666;BME280;29726;53.532;-1.478;2023-03-12T04:03:52;99103.75;;;8.36;99.89
24666;BME280;29726;53.532;-1.478;2023-03-12T04:06:37;99109.59;;;8.38;99.01
24666;BME280;29726;53.532;-1.478;2023-03-12T04:09:20;99110.34;;;8.39;99.36
24666;BME280;29726;53.532;-1.478;2023-03-12T04:12:04;99108.59;;;8.41;99.77
24666;BME280;29726;53.532;-1.478;2023-03-12T04:14:48;99107.34;;;8.42;100.00
24666;BME280;29726;53.532;-1.478;2023-03-12T04:17:33;99112.91;;;8.42;100.00
24666;BME280;29726;53.532;-1.478;2023-03-12T04:20:16;99110.84;;;8.37;100.00
24666;BME280;29726;53.532;-1.478;2023-03-12T04:23:00;99110.34;;;8.39;100.00
24666;BME280;29726;53.532;-1.478;2023-03-12T04:25:44;99119.81;;;8.47;100.00
24666;BME280;29726;53.532;-1.478;2023-03-12T04:28:28;99108.88;;;8.43;100.00
24666;BME280;29726;53.532;-1.478;2023-03-12T04:31:13;99097.56;;;8.47;100.00
24666;BME280;29726;53.532;-1.478;2023-03-12T04:33:57;99104.66;;;8.48;100.00
24666;BME280;29726;53.532;-1.478;2023-03-12T04:36:40;99117.84;;;8.53;100.00
24666;BME280;29726;53.532;-1.478;2023-03-12T04:39:24;99105.19;;;8.52;100.00
24666;BME280;29726;53.532;-1.478;2023-03-12T04:42:09;99086.47;;;8.52;100.00
24666;BME280;29726;53.532;-1.478;2023-03-12T04:44:53;99081.16;;;8.49;100.00
24666;BME280;29726;53.532;-1.478;2023-03-12T04:47:36;99084.25;;;8.56;100.00
24666;BME280;29726;53.532;-1.478;2023-03-12T04:50:21;99093.84;;;8.55;100.00
24666;BME280;29726;53.532;-1.478;2023-03-12T04:53:05;99091.66;;;8.59;100.00
24666;BME280;29726;53.532;-1.478;2023-03-12T04:55:49;99100.19;;;8.56;100.00
24666;BME280;29726;53.532;-1.478;2023-03-12T04:58:33;99109.16;;;8.65;100.00
24666;BME280;29726;53.532;-1.478;2023-03-12T05:01:23;99108.66;;;8.67;100.00
24666;BME280;29726;53.532;-1.478;2023-03-12T05:04:07;99098.78;;;8.66;100.00
24666;BME280;29726;53.532;-1.478;2023-03-12T05:06:51;99106.13;;;8.69;100.00
24666;BME280;29726;53.532;-1.478;2023-03-12T05:09:35;99103.88;;;8.67;100.00
24666;BME280;29726;53.532;-1.478;2023-03-12T05:12:19;99120.63;;;8.73;100.00
24666;BME280;29726;53.532;-1.478;2023-03-12T05:15:04;99109.50;;;8.73;100.00
24666;BME280;29726;53.532;-1.478;2023-03-12T05:17:48;99109.50;;;8.73;100.00
24666;BME280;29726;53.532;-1.478;2023-03-12T05:20:32;99081.97;;;8.55;100.00
24666;BME280;29726;53.532;-1.478;2023-03-12T05:23:16;99113.56;;;8.77;100.00
24666;BME280;29726;53.532;-1.478;2023-03-12T05:26:00;99117.06;;;8.72;100.00
24666;BME280;29726;53.532;-1.478;2023-03-12T05:28:43;99134.09;;;8.80;100.00
24666;BME280;29726;53.532;-1.478;2023-03-12T05:31:28;99139.22;;;8.87;100.00
24666;BME280;29726;53.532;-1.478;2023-03-12T05:34:15;99137.69;;;8.86;100.00
24666;BME280;29726;53.532;-1.478;2023-03-12T05:37:00;99136.25;;;8.90;100.00
24666;BME280;29726;53.532;-1.478;2023-03-12T05:39:44;99112.66;;;8.86;100.00
24666;BME280;29726;53.532;-1.478;2023-03-12T05:42:31;99135.72;;;8.92;100.00
24666;BME280;29726;53.532;-1.478;2023-03-12T05:45:15;99117.06;;;8.72;100.00
24666;BME280;29726;53.532;-1.478;2023-03-12T05:47:59;99132.94;;;8.92;100.00
24666;BME280;29726;53.532;-1.478;2023-03-12T05:50:43;99146.88;;;8.92;100.00
24666;BME280;29726;53.532;-1.478;2023-03-12T05:53:26;99149.44;;;8.95;100.00
24666;BME280;29726;53.532;-1.478;2023-03-12T05:56:13;99156.34;;;9.00;100.00
24666;BME280;29726;53.532;-1.478;2023-03-12T05:58:57;99150.78;;;9.00;100.00
24666;BME280;29726;53.532;-1.478;2023-03-12T06:01:41;99146.94;;;8.97;100.00
24666;BME280;29726;53.532;-1.478;2023-03-12T06:04:25;99151.25;;;8.98;100.00
24666;BME280;29726;53.532;-1.478;2023-03-12T06:07:09;99162.44;;;9.04;100.00
24666;BME280;29726;53.532;-1.478;2023-03-12T06:09:53;99142.16;;;8.98;100.00
24666;BME280;29726;53.532;-1.478;2023-03-12T06:12:37;99163.78;;;9.08;100.00
24666;BME280;29726;53.532;-1.478;2023-03-12T06:15:21;99147.81;;;9.09;100.00
24666;BME280;29726;53.532;-1.478;2023-03-12T06:18:05;99150.88;;;9.11;100.00
24666;BME280;29726;53.532;-1.478;2023-03-12T06:20:49;99164.03;;;9.10;100.00
24666;BME280;29726;53.532;-1.478;2023-03-12T06:23:33;99154.72;;;9.13;100.00
24666;BME280;29726;53.532;-1.478;2023-03-12T06:26:19;99131.34;;;9.05;100.00
24666;BME280;29726;53.532;-1.478;2023-03-12T06:29:03;99137.75;;;9.11;100.00
24666;BME280;29726;53.532;-1.478;2023-03-12T06:31:47;99135.97;;;9.14;100.00
24666;BME280;29726;53.532;-1.478;2023-03-12T06:34:34;99149.69;;;9.17;100.00
24666;BME280;29726;53.532;-1.478;2023-03-12T06:37:18;99156.78;;;9.18;100.00
24666;BME280;29726;53.532;-1.478;2023-03-12T06:40:02;99163.41;;;9.21;100.00
24666;BME280;29726;53.532;-1.478;2023-03-12T06:42:48;99167.19;;;9.23;100.00
24666;BME280;29726;53.532;-1.478;2023-03-12T06:45:31;99171.94;;;9.17;100.00
24666;BME280;29726;53.532;-1.478;2023-03-12T06:48:16;99182.38;;;9.22;100.00
24666;BME280;29726;53.532;-1.478;2023-03-12T06:51:00;99166.19;;;9.21;100.00
24666;BME280;29726;53.532;-1.478;2023-03-12T06:53:44;99172.03;;;9.23;100.00
24666;BME280;29726;53.532;-1.478;2023-03-12T06:56:30;99168.03;;;9.29;100.00
24666;BME280;29726;53.532;-1.478;2023-03-12T06:59:14;99159.19;;;9.31;100.00
24666;BME280;29726;53.532;-1.478;2023-03-12T07:01:58;99143.19;;;9.26;100.00
24666;BME280;29726;53.532;-1.478;2023-03-12T07:04:42;99156.41;;;9.31;100.00
24666;BME280;29726;53.532;-1.478;2023-03-12T07:07:26;99156.19;;;9.34;100.00
24666;BME280;29726;53.532;-1.478;2023-03-12T07:10:10;99156.41;;;9.31;100.00
24666;BME280;29726;53.532;-1.478;2023-03-12T07:12:55;99164.81;;;9.36;100.00
24666;BME280;29726;53.532;-1.478;2023-03-12T07:15:39;99170.38;;;9.36;100.00
24666;BME280;29726;53.532;-1.478;2023-03-12T07:18:23;99184.31;;;9.36;100.00
24666;BME280;29726;53.532;-1.478;2023-03-12T07:21:07;99172.44;;;9.41;100.00
24666;BME280;29726;53.532;-1.478;2023-03-12T07:23:52;99169.13;;;9.37;100.00
24666;BME280;29726;53.532;-1.478;2023-03-12T07:26:36;99179.50;;;9.37;100.00
24666;BME280;29726;53.532;-1.478;2023-03-12T07:29:20;99181.28;;;9.40;100.00
24666;BME280;29726;53.532;-1.478;2023-03-12T07:32:04;99187.44;;;9.44;100.00
24666;BME280;29726;53.532;-1.478;2023-03-12T07:34:48;99189.97;;;9.47;100.00
24666;BME280;29726;53.532;-1.478;2023-03-12T07:37:32;99189.75;;;9.51;100.00
24666;BME280;29726;53.532;-1.478;2023-03-12T07:40:16;99196.88;;;9.52;100.00
24666;BME280;29726;53.532;-1.478;2023-03-12T07:43:00;99216.34;;;9.52;100.00
24666;BME280;29726;53.532;-1.478;2023-03-12T07:45:44;99229.56;;;9.57;100.00
24666;BME280;29726;53.532;-1.478;2023-03-12T07:48:28;99229.56;;;9.57;100.00
24666;BME280;29726;53.532;-1.478;2023-03-12T07:51:12;99229.31;;;9.55;100.00
24666;BME280;29726;53.532;-1.478;2023-03-12T07:53:56;99229.84;;;9.59;100.00
24666;BME280;29726;53.532;-1.478;2023-03-12T07:56:40;99247.66;;;9.67;100.00
24666;BME280;29726;53.532;-1.478;2023-03-12T07:59:24;99230.91;;;9.61;100.00
24666;BME280;29726;53.532;-1.478;2023-03-12T08:02:10;99229.69;;;9.68;100.00
24666;BME280;29726;53.532;-1.478;2023-03-12T08:04:54;99241.38;;;9.72;100.00
24666;BME280;29726;53.532;-1.478;2023-03-12T08:07:38;99228.47;;;9.74;100.00
24666;BME280;29726;53.532;-1.478;2023-03-12T08:10:22;99214.50;;;9.69;100.00
24666;BME280;29726;53.532;-1.478;2023-03-12T08:13:06;99224.41;;;9.70;100.00
24666;BME280;29726;53.532;-1.478;2023-03-12T08:15:53;99229.25;;;9.75;100.00
24666;BME280;29726;53.532;-1.478;2023-03-12T08:18:37;99214.94;;;9.62;100.00
24666;BME280;29726;53.532;-1.478;2023-03-12T08:21:21;99235.63;;;9.81;100.00
24666;BME280;29726;53.532;-1.478;2023-03-12T08:24:06;99245.03;;;9.83;100.00
24666;BME280;29726;53.532;-1.478;2023-03-12T08:26:50;99252.19;;;9.89;100.00
24666;BME280;29726;53.532;-1.478;2023-03-12T08:29:34;99238.25;;;9.89;100.00
24666;BME280;29726;53.532;-1.478;2023-03-12T08:32:18;99241.06;;;9.95;100.00
24666;BME280;29726;53.532;-1.478;2023-03-12T08:35:02;99244.09;;;9.91;100.00
24666;BME280;29726;53.532;-1.478;2023-03-12T08:37:48;99248.06;;;10.05;100.00
24666;BME280;29726;53.532;-1.478;2023-03-12T08:40:31;99237.66;;;10.05;100.00
24666;BME280;29726;53.532;-1.478;2023-03-12T08:43:15;99216.66;;;10.10;100.00
24666;BME280;29726;53.532;-1.478;2023-03-12T08:46:01;99243.06;;;10.14;100.00
24666;BME280;29726;53.532;-1.478;2023-03-12T08:48:45;99235.19;;;10.13;100.00
24666;BME280;29726;53.532;-1.478;2023-03-12T08:51:29;99224.88;;;10.24;100.00
24666;BME280;29726;53.532;-1.478;2023-03-12T08:54:13;99235.56;;;10.31;100.00
24666;BME280;29726;53.532;-1.478;2023-03-12T08:56:57;99215.28;;;10.31;100.00
24666;BME280;29726;53.532;-1.478;2023-03-12T08:59:41;99217.63;;;10.38;100.00
24666;BME280;29726;53.532;-1.478;2023-03-12T09:02:25;99220.44;;;10.43;100.00
24666;BME280;29726;53.532;-1.478;2023-03-12T09:05:09;99204.47;;;10.44;100.00
24666;BME280;29726;53.532;-1.478;2023-03-12T09:07:55;99203.50;;;10.52;100.00
24666;BME280;29726;53.532;-1.478;2023-03-12T09:10:40;99199.97;;;10.52;100.00
24666;BME280;29726;53.532;-1.478;2023-03-12T09:13:24;99195.91;;;10.53;100.00
24666;BME280;29726;53.532;-1.478;2023-03-12T09:16:08;99210.94;;;10.66;100.00
24666;BME280;29726;53.532;-1.478;2023-03-12T09:18:53;99206.16;;;10.72;100.00
24666;BME280;29726;53.532;-1.478;2023-03-12T09:21:37;99204.91;;;10.79;100.00
24666;BME280;29726;53.532;-1.478;2023-03-12T09:24:23;99202.44;;;10.86;100.00
24666;BME280;29726;53.532;-1.478;2023-03-12T09:27:07;99194.31;;;10.88;100.00
24666;BME280;29726;53.532;-1.478;2023-03-12T09:29:52;99214.16;;;10.96;100.00
24666;BME280;29726;53.532;-1.478;2023-03-12T09:32:37;99215.69;;;11.02;100.00
24666;BME280;29726;53.532;-1.478;2023-03-12T09:35:21;99190.50;;;10.91;100.00
24666;BME280;29726;53.532;-1.478;2023-03-12T09:38:05;99227.94;;;11.16;100.00
24666;BME280;29726;53.532;-1.478;2023-03-12T09:40:49;99198.19;;;11.13;100.00
24666;BME280;29726;53.532;-1.478;2023-03-12T09:43:46;99226.94;;;11.24;100.00
24666;BME280;29726;53.532;-1.478;2023-03-12T09:46:46;99223.91;;;11.28;100.00
24666;BME280;29726;53.532;-1.478;2023-03-12T09:49:44;99206.91;;;11.31;100.00
24666;BME280;29726;53.532;-1.478;2023-03-12T09:52:39;99200.81;;;11.38;100.00
24666;BME280;29726;53.532;-1.478;2023-03-12T09:55:32;99197.28;;;11.43;100.00
24666;BME280;29726;53.532;-1.478;2023-03-12T10:25:07;99147.50;;;12.18;100.00
24666;BME280;29726;53.532;-1.478;2023-03-12T10:28:00;99155.13;;;12.29;100.00
24666;BME280;29726;53.532;-1.478;2023-03-12T10:30:50;99153.31;;;12.42;100.00
24666;BME280;29726;53.532;-1.478;2023-03-12T10:33:55;99136.22;;;12.51;100.00
24666;BME280;29726;53.532;-1.478;2023-03-12T10:36:40;99134.69;;;12.61;100.00
24666;BME280;29726;53.532;-1.478;2023-03-12T10:39:24;99132.84;;;12.75;100.00
24666;BME280;29726;53.532;-1.478;2023-03-12T10:42:15;99133.81;;;12.83;100.00
24666;BME280;29726;53.532;-1.478;2023-03-12T10:48:19;99150.56;;;13.05;100.00
24666;BME280;29726;53.532;-1.478;2023-03-12T10:51:06;99151.78;;;13.15;100.00
24666;BME280;29726;53.532;-1.478;2023-03-12T10:53:51;99162.19;;;13.25;100.00
24666;BME280;29726;53.532;-1.478;2023-03-12T10:56:50;99153.19;;;13.37;100.00
24666;BME280;29726;53.532;-1.478;2023-03-12T10:59:37;99161.50;;;13.48;100.00
24666;BME280;29726;53.532;-1.478;2023-03-12T11:11:04;99157.66;;;13.86;100.00
24666;BME280;29726;53.532;-1.478;2023-03-12T11:14:05;99168.22;;;14.04;100.00
24666;BME280;29726;53.532;-1.478;2023-03-12T11:16:51;99160.75;;;14.12;100.00
24666;BME280;29726;53.532;-1.478;2023-03-12T11:19:36;99156.34;;;14.22;100.00
24666;BME280;29726;53.532;-1.478;2023-03-12T11:22:32;99173.09;;;14.33;100.00
24666;BME280;29726;53.532;-1.478;2023-03-12T11:25:27;99163.56;;;14.42;100.00
24666;BME280;29726;53.532;-1.478;2023-03-12T11:28:20;99125.41;;;14.28;100.00
24666;BME280;29726;53.532;-1.478;2023-03-12T11:31:18;99161.31;;;14.59;100.00
24666;BME280;29726;53.532;-1.478;2023-03-12T11:34:23;99159.69;;;14.69;100.00
24666;BME280;29726;53.532;-1.478;2023-03-12T12:17:24;99121.31;;;15.82;100.00
24666;BME280;29726;53.532;-1.478;2023-03-12T12:20:49;99119.63;;;15.92;100.00
24666;BME280;29726;53.532;-1.478;2023-03-12T12:34:05;99135.69;;;16.23;100.00
24666;BME280;29726;53.532;-1.478;2023-03-12T12:36:30;99125.84;;;16.29;100.00
24666;BME280;29726;53.532;-1.478;2023-03-12T12:42:14;99095.25;;;16.39;100.00
24666;BME280;29726;53.532;-1.478;2023-03-12T12:45:02;99085.81;;;16.49;100.00
24666;BME280;29726;53.532;-1.478;2023-03-12T12:47:55;99048.88;;;16.40;100.00
24666;BME280;29726;53.532;-1.478;2023-03-12T12:50:43;99064.34;;;16.59;100.00
24666;BME280;29726;53.532;-1.478;2023-03-12T12:56:51;99059.88;;;16.76;100.00
24666;BME280;29726;53.532;-1.478;2023-03-12T12:59:42;99059.44;;;16.85;100.00
24666;BME280;29726;53.532;-1.478;2023-03-12T13:02:37;99059.09;;;16.89;100.00
24666;BME280;29726;53.532;-1.478;2023-03-12T13:05:57;99069.34;;;16.99;100.00
24666;BME280;29726;53.532;-1.478;2023-03-12T13:11:38;99061.31;;;17.03;100.00
24666;BME280;29726;53.532;-1.478;2023-03-12T13:14:36;99072.56;;;17.16;100.00
24666;BME280;29726;53.532;-1.478;2023-03-12T13:23:38;99083.16;;;17.36;100.00
24666;BME280;29726;53.532;-1.478;2023-03-12T13:26:46;99076.63;;;17.41;100.00
24666;BME280;29726;53.532;-1.478;2023-03-12T13:29:36;99095.16;;;17.50;100.00
24666;BME280;29726;53.532;-1.478;2023-03-12T13:38:11;99108.66;;;17.64;100.00
24666;BME280;29726;53.532;-1.478;2023-03-12T13:41:00;99093.44;;;17.67;100.00
24666;BME280;29726;53.532;-1.478;2023-03-12T13:43:49;99097.66;;;17.74;100.00
24666;BME280;29726;53.532;-1.478;2023-03-12T13:46:43;99094.50;;;17.77;100.00
24666;BME280;29726;53.532;-1.478;2023-03-12T13:49:42;99095.09;;;17.83;100.00
24666;BME280;29726;53.532;-1.478;2023-03-12T13:52:31;99085.53;;;17.86;100.00
24666;BME280;29726;53.532;-1.478;2023-03-12T13:55:23;99092.88;;;17.89;100.00
24666;BME280;29726;53.532;-1.478;2023-03-12T13:58:13;99085.72;;;17.88;100.00
24666;BME280;29726;53.532;-1.478;2023-03-12T14:01:02;99077.88;;;17.94;100.00
24666;BME280;29726;53.532;-1.478;2023-03-12T14:04:07;99086.19;;;18.00;100.00
24666;BME280;29726;53.532;-1.478;2023-03-12T14:10:18;99068.34;;;18.05;100.00
24666;BME280;29726;53.532;-1.478;2023-03-12T14:16:19;99061.78;;;18.10;100.00
24666;BME280;29726;53.532;-1.478;2023-03-12T14:19:05;99053.53;;;18.12;100.00
24666;BME280;29726;53.532;-1.478;2023-03-12T14:21:52;99047.53;;;18.15;100.00
24666;BME280;29726;53.532;-1.478;2023-03-12T14:24:47;99055.66;;;18.19;100.00
24666;BME280;29726;53.532;-1.478;2023-03-12T14:27:32;99029.25;;;18.16;100.00
24666;BME280;29726;53.532;-1.478;2023-03-12T14:30:23;99025.75;;;18.23;100.00
24666;BME280;29726;53.532;-1.478;2023-03-12T14:33:11;99047.25;;;18.26;100.00
24666;BME280;29726;53.532;-1.478;2023-03-12T14:36:05;99034.84;;;18.29;100.00
24666;BME280;29726;53.532;-1.478;2023-03-12T14:38:56;99031.59;;;18.25;100.00
24666;BME280;29726;53.532;-1.478;2023-03-12T14:41:44;99030.13;;;18.32;100.00
24666;BME280;29726;53.532;-1.478;2023-03-12T14:44:31;99025.25;;;18.32;100.00
24666;BME280;29726;53.532;-1.478;2023-03-12T14:47:16;99021.88;;;18.34;100.00
24666;BME280;29726;53.532;-1.478;2023-03-12T14:50:01;99015.66;;;18.35;100.00
24666;BME280;29726;53.532;-1.478;2023-03-12T14:52:47;98998.72;;;18.35;100.00
24666;BME280;29726;53.532;-1.478;2023-03-12T14:55:31;99008.50;;;18.34;100.00
24666;BME280;29726;53.532;-1.478;2023-03-12T14:58:18;99002.31;;;18.36;100.00
24666;BME280;29726;53.532;-1.478;2023-03-12T15:01:05;98986.09;;;18.36;100.00
24666;BME280;29726;53.532;-1.478;2023-03-12T15:03:54;99001.94;;;18.39;100.00
24666;BME280;29726;53.532;-1.478;2023-03-12T15:09:31;98994.97;;;18.40;100.00
24666;BME280;29726;53.532;-1.478;2023-03-12T15:12:26;98974.78;;;18.36;100.00
24666;BME280;29726;53.532;-1.478;2023-03-12T15:15:43;98984.44;;;18.41;100.00
24666;BME280;29726;53.532;-1.478;2023-03-12T15:18:30;98985.16;;;18.41;100.00
24666;BME280;29726;53.532;-1.478;2023-03-12T15:21:16;98975.97;;;18.41;100.00
24666;BME280;29726;53.532;-1.478;2023-03-12T15:24:01;98975.19;;;18.40;100.00
24666;BME280;29726;53.532;-1.478;2023-03-12T15:26:46;98960.13;;;18.38;100.00
24666;BME280;29726;53.532;-1.478;2023-03-12T15:29:30;98952.38;;;18.38;100.00
24666;BME280;29726;53.532;-1.478;2023-03-12T15:32:16;98933.19;;;18.37;100.00
24666;BME280;29726;53.532;-1.478;2023-03-12T15:35:11;98894.81;;;18.13;100.00
24666;BME280;29726;53.532;-1.478;2023-03-12T15:37:56;98935.44;;;18.38;100.00
24666;BME280;29726;53.532;-1.478;2023-03-12T15:40:41;98933.75;;;18.43;100.00
24666;BME280;29726;53.532;-1.478;2023-03-12T15:43:31;98925.63;;;18.39;100.00
24666;BME280;29726;53.532;-1.478;2023-03-12T15:46:16;98939.81;;;18.47;100.00
24666;BME280;29726;53.532;-1.478;2023-03-12T15:49:00;98935.47;;;18.46;100.00
24666;BME280;29726;53.532;-1.478;2023-03-12T15:57:50;98891.69;;;18.32;100.00
24666;BME280;29726;53.532;-1.478;2023-03-12T16:00:43;98886.84;;;18.40;100.00
24666;BME280;29726;53.532;-1.478;2023-03-12T16:03:27;98891.22;;;18.48;100.00
24666;BME280;29726;53.532;-1.478;2023-03-12T16:06:13;98883.47;;;18.48;100.00
24666;BME280;29726;53.532;-1.478;2023-03-12T16:09:00;98862.94;;;18.41;100.00
24666;BME280;29726;53.532;-1.478;2023-03-12T16:11:46;98882.94;;;18.50;100.00
24666;BME280;29726;53.532;-1.478;2023-03-12T16:14:32;98881.22;;;18.47;100.00
24666;BME280;29726;53.532;-1.478;2023-03-12T16:17:22;98875.78;;;18.49;100.00
24666;BME280;29726;53.532;-1.478;2023-03-12T16:20:10;98865.78;;;18.48;100.00
24666;BME280;29726;53.532;-1.478;2023-03-12T16:22:54;98839.00;;;18.42;100.00
24666;BME280;29726;53.532;-1.478;2023-03-12T16:25:42;98863.69;;;18.48;100.00
24666;BME280;29726;53.532;-1.478;2023-03-12T16:28:26;98855.03;;;18.47;100.00
24666;BME280;29726;53.532;-1.478;2023-03-12T16:31:14;98850.13;;;18.47;100.00
24666;BME280;29726;53.532;-1.478;2023-03-12T16:33:59;98833.00;;;18.45;100.00
24666;BME280;29726;53.532;-1.478;2023-03-12T16:36:43;98828.09;;;18.46;100.00